Ellenburg Center, New York
Current Conditions -  °F | °C
As of 9:53 PM on Monday 26 Jan 2015 (Local Time) from KPBG Reporting Station
Clear Clear  
Wind Chill: -8°   Ceiling: Unl
Heat Index:   Visibility: 10mi
Dew Point: -4°   Wind: 9mph
Humidity: 63%   Direction: 350°N
Pressure: 30.14"   Gusts: NA
Location:  44.86°N, 73.9°W
Report Text: KPBG 270253Z AUTO 35008KT 10SM CLR M14/M20 A3014 RMK AO2 SLP213 T11441200 58003
Loading
Personal Weather Stations






























Interactive Weather Map New forecast layout! Learn more

10-Day Weather Forecast

Advertisements
Track Severe Weather on mobile